createdAt,value
2023-03-01T00:01:39.452Z,2.13
2023-03-01T00:04:40.824Z,2.09
2023-03-01T00:07:42.213Z,2.16
2023-03-01T00:10:43.700Z,2.11
2023-03-01T00:13:46.839Z,2.11
2023-03-01T00:16:48.288Z,2.08
2023-03-01T00:19:50.898Z,2.14
2023-03-01T00:22:52.301Z,2.04
2023-03-01T00:25:54.728Z,2.04
2023-03-01T00:28:58.794Z,2.12
2023-03-01T00:32:00.402Z,2.09
2023-03-01T00:35:01.845Z,1.99
2023-03-01T00:38:04.826Z,1.97
2023-03-01T00:41:11.135Z,1.98
2023-03-01T00:44:12.597Z,1.92
2023-03-01T00:47:14.851Z,1.86
2023-03-01T00:50:16.611Z,1.82
2023-03-01T00:53:18.005Z,1.84
2023-03-01T00:56:20.815Z,1.87
2023-03-01T00:59:22.234Z,1.82
2023-03-01T01:02:23.773Z,1.78
2023-03-01T01:05:25.168Z,1.75
2023-03-01T01:08:28.358Z,1.76
2023-03-01T01:11:30.782Z,1.78
2023-03-01T01:14:32.522Z,1.74
2023-03-01T01:17:33.923Z,1.67
2023-03-01T01:20:37.299Z,1.66
2023-03-01T01:23:40.768Z,1.72
2023-03-01T01:26:43.170Z,1.72
2023-03-01T01:29:44.665Z,1.74
2023-03-01T01:32:46.098Z,1.68
2023-03-01T01:35:47.600Z,1.64
2023-03-01T01:38:49.243Z,1.63
2023-03-01T01:41:51.081Z,1.57
2023-03-01T01:45:28.492Z,1.56
2023-03-01T01:48:42.495Z,1.47
2023-03-01T01:51:49.113Z,1.54
2023-03-01T01:55:01.713Z,1.58
2023-03-01T01:58:07.328Z,1.54
2023-03-01T02:01:08.965Z,1.64
2023-03-01T02:04:10.757Z,1.62
2023-03-01T02:07:17.912Z,1.64
2023-03-01T02:10:20.007Z,1.67
2023-03-01T02:13:21.400Z,1.57
2023-03-01T02:16:23.003Z,1.56
2023-03-01T02:19:35.246Z,1.47
2023-03-01T02:22:39.168Z,1.44
2023-03-01T02:26:02.197Z,1.40
2023-03-01T02:29:04.057Z,1.50
2023-03-01T02:32:06.236Z,1.54
2023-03-01T02:35:10.033Z,1.55
2023-03-01T02:38:11.411Z,1.55
2023-03-01T02:41:16.238Z,1.49
2023-03-01T02:44:18.220Z,1.45
2023-03-01T02:47:19.642Z,1.40
2023-03-01T02:50:30.843Z,1.33
2023-03-01T02:54:14.307Z,1.32
2023-03-01T02:57:16.475Z,1.20
2023-03-01T03:00:23.489Z,1.24
2023-03-01T03:03:25.068Z,1.22
2023-03-01T03:06:26.539Z,1.28
2023-03-01T03:09:29.367Z,1.23
2023-03-01T03:12:31.740Z,1.21
2023-03-01T03:15:36.833Z,1.24
2023-03-01T03:18:38.221Z,1.24
2023-03-01T03:21:39.904Z,1.25
2023-03-01T03:24:41.308Z,1.13
2023-03-01T03:27:44.982Z,1.05
2023-03-01T03:30:47.620Z,1.02
2023-03-01T03:33:49.043Z,1.05
2023-03-01T03:37:00.280Z,1.00
2023-03-01T03:40:01.754Z,1.07
2023-03-01T03:43:04.822Z,1.08
2023-03-01T03:46:07.197Z,1.04
2023-03-01T03:49:08.675Z,0.95
2023-03-01T03:52:14.269Z,0.98
2023-03-01T03:55:20.083Z,1.01
2023-03-01T03:58:25.016Z,0.96
2023-03-01T04:01:26.547Z,0.96
2023-03-01T04:04:27.946Z,0.93
2023-03-01T04:07:29.318Z,0.83
2023-03-01T04:10:33.602Z,0.79
2023-03-01T04:13:35.025Z,0.78
2023-03-01T04:16:36.578Z,0.90
2023-03-01T04:19:37.964Z,0.99
2023-03-01T04:22:40.960Z,1.07
2023-03-01T04:25:55.232Z,1.05
2023-03-01T04:28:56.662Z,1.10
2023-03-01T04:31:58.118Z,1.12
2023-03-01T04:34:59.562Z,1.10
2023-03-01T04:38:01.048Z,1.06
2023-03-01T04:41:04.321Z,1.02
2023-03-01T04:44:06.626Z,0.99
2023-03-01T04:47:08.052Z,0.99
2023-03-01T04:50:11.669Z,0.86
2023-03-01T04:53:13.103Z,0.81
2023-03-01T04:56:15.354Z,0.84
2023-03-01T04:59:16.725Z,0.79
2023-03-01T05:02:18.128Z,0.89
2023-03-01T05:05:22.597Z,0.72
2023-03-01T05:08:23.972Z,0.50
2023-03-01T05:11:25.443Z,0.40
2023-03-01T05:14:26.832Z,0.38
2023-03-01T05:17:28.212Z,0.35
2023-03-01T05:20:30.863Z,0.31
2023-03-01T05:23:33.578Z,0.28
2023-03-01T05:26:34.959Z,0.26
2023-03-01T05:29:36.340Z,0.31
2023-03-01T05:32:37.720Z,0.40
2023-03-01T05:35:39.166Z,0.59
2023-03-01T05:38:40.558Z,0.81
2023-03-01T05:41:42.018Z,0.75
2023-03-01T05:44:43.423Z,0.73
2023-03-01T05:47:46.913Z,0.71
2023-03-01T05:50:48.490Z,0.66
2023-03-01T05:53:49.929Z,0.60
2023-03-01T05:56:51.336Z,0.61
2023-03-01T05:59:52.728Z,0.61
2023-03-01T06:02:55.425Z,0.64
2023-03-01T06:05:58.349Z,0.68
2023-03-01T06:08:59.814Z,0.74
2023-03-01T06:12:01.185Z,0.71
2023-03-01T06:15:03.020Z,0.57
2023-03-01T06:18:04.433Z,0.60
2023-03-01T06:21:07.643Z,0.59
2023-03-01T06:24:09.322Z,0.54
2023-03-01T06:27:10.734Z,0.57
2023-03-01T06:30:19.326Z,0.58
2023-03-01T06:33:25.242Z,0.62
2023-03-01T06:36:26.635Z,0.68
2023-03-01T06:39:28.994Z,0.78
2023-03-01T06:42:30.450Z,0.79
2023-03-01T06:45:31.860Z,0.73
2023-03-01T06:48:34.652Z,0.74
2023-03-01T06:51:37.696Z,0.81
2023-03-01T06:54:39.326Z,0.83
2023-03-01T06:57:40.686Z,0.89
2023-03-01T07:00:43.900Z,0.99
2023-03-01T07:03:45.345Z,1.02
2023-03-01T07:06:46.787Z,1.03
2023-03-01T07:09:49.920Z,1.07
2023-03-01T07:12:51.507Z,1.15
2023-03-01T07:15:53.066Z,1.20
2023-03-01T07:18:55.146Z,1.26
2023-03-01T07:21:56.806Z,1.24
2023-03-01T07:24:58.245Z,1.39
2023-03-01T07:28:00.015Z,1.47
2023-03-01T07:31:03.144Z,1.52
2023-03-01T07:34:04.528Z,1.64
2023-03-01T07:37:06.015Z,1.67
2023-03-01T07:40:08.391Z,1.78
2023-03-01T07:43:09.800Z,1.89
2023-03-01T07:46:11.287Z,2.04
2023-03-01T07:49:12.787Z,2.16
2023-03-01T07:52:14.183Z,2.36
2023-03-01T07:55:17.002Z,2.47
2023-03-01T07:58:18.465Z,2.41
2023-03-01T08:01:21.558Z,2.43
2023-03-01T08:04:24.100Z,2.52
2023-03-01T08:07:25.493Z,2.49
2023-03-01T08:10:27.007Z,2.60
2023-03-01T08:13:29.512Z,2.78
2023-03-01T08:16:31.383Z,2.78
2023-03-01T08:19:34.085Z,2.91
2023-03-01T08:22:35.522Z,2.79
2023-03-01T08:25:37.235Z,2.96
2023-03-01T08:28:39.571Z,3.21
2023-03-01T08:31:41.948Z,3.29
2023-03-01T08:34:43.382Z,3.28
2023-03-01T08:37:44.861Z,3.46
2023-03-01T08:40:46.288Z,3.52
2023-03-01T08:43:48.092Z,3.65
2023-03-01T08:46:50.926Z,3.61
2023-03-01T08:49:52.454Z,3.83
2023-03-01T08:52:53.838Z,3.83
2023-03-01T08:55:55.293Z,3.84
2023-03-01T08:58:56.662Z,3.99
2023-03-01T09:01:58.112Z,4.08
2023-03-01T09:04:59.573Z,4.20
2023-03-01T09:08:01.124Z,4.27
2023-03-01T09:11:07.633Z,4.18
2023-03-01T09:14:09.051Z,4.01
2023-03-01T09:17:10.546Z,4.05
2023-03-01T09:20:12.133Z,4.32
2023-03-01T09:23:13.519Z,4.19
2023-03-01T09:26:20.506Z,4.43
2023-03-01T09:29:22.736Z,4.56
2023-03-01T09:32:24.309Z,4.68
2023-03-01T09:35:25.854Z,4.57
2023-03-01T09:38:27.829Z,4.44
2023-03-01T09:41:47.477Z,4.84
2023-03-01T09:45:04.257Z,4.73
2023-03-01T09:48:13.586Z,4.86
2023-03-01T09:51:20.330Z,5.10
2023-03-01T09:54:21.821Z,5.29
2023-03-01T09:57:46.791Z,5.30
2023-03-01T10:00:50.593Z,5.56
2023-03-01T10:04:19.743Z,5.92
2023-03-01T10:07:29.095Z,5.91
2023-03-01T10:10:37.272Z,5.87
2023-03-01T10:13:49.998Z,6.16
2023-03-01T10:17:03.767Z,6.07
2023-03-01T10:20:39.561Z,5.73
2023-03-01T10:23:40.988Z,5.99
2023-03-01T10:26:49.251Z,5.75
2023-03-01T10:30:17.356Z,6.01
2023-03-01T10:33:23.030Z,6.14
2023-03-01T10:36:24.897Z,6.35
2023-03-01T10:39:27.660Z,6.63
2023-03-01T10:42:32.675Z,6.69
2023-03-01T10:45:37.300Z,6.79
2023-03-01T10:48:38.667Z,6.86
2023-03-01T10:51:45.664Z,6.72
2023-03-01T10:55:02.911Z,6.57
2023-03-01T10:58:18.104Z,6.89
2023-03-01T11:01:19.471Z,7.09
2023-03-01T11:04:20.913Z,7.20
2023-03-01T11:07:22.330Z,7.43
2023-03-01T11:10:33.151Z,7.28
2023-03-01T11:13:37.433Z,7.69
2023-03-01T11:16:41.951Z,7.86
2023-03-01T11:19:46.907Z,8.34
2023-03-01T11:22:56.192Z,8.55
2023-03-01T11:26:02.838Z,8.56
2023-03-01T11:29:08.125Z,8.69
2023-03-01T11:32:14.213Z,8.69
2023-03-01T11:35:23.667Z,8.64
2023-03-01T11:38:27.780Z,8.67
2023-03-01T11:41:36.160Z,8.60
2023-03-01T11:44:40.070Z,8.79
2023-03-01T11:48:12.797Z,8.99
2023-03-01T11:51:23.541Z,9.12
2023-03-01T11:54:41.834Z,9.43
2023-03-01T11:58:42.042Z,9.50
2023-03-01T12:01:49.258Z,9.58
2023-03-01T12:04:59.348Z,9.48
2023-03-01T12:08:09.227Z,9.65
2023-03-01T12:11:15.539Z,9.85
2023-03-01T12:14:23.053Z,9.61
2023-03-01T12:17:45.543Z,9.85
2023-03-01T12:21:05.799Z,10.00
2023-03-01T12:24:32.161Z,10.12
2023-03-01T12:28:09.774Z,10.01
2023-03-01T12:31:31.272Z,10.07
2023-03-01T12:35:10.118Z,10.29
2023-03-01T12:38:26.611Z,10.65
2023-03-01T12:41:49.283Z,10.93
2023-03-01T12:45:01.618Z,11.03
2023-03-01T12:48:40.852Z,10.50
2023-03-01T12:51:57.633Z,10.45
2023-03-01T12:55:03.523Z,10.05
2023-03-01T12:58:25.673Z,10.28
2023-03-01T13:01:52.574Z,11.06
2023-03-01T13:05:12.798Z,10.45
2023-03-01T13:08:23.178Z,10.53
2023-03-01T13:11:24.993Z,10.80
2023-03-01T13:14:26.317Z,10.76
2023-03-01T13:17:32.631Z,10.27
2023-03-01T13:20:42.907Z,10.43
2023-03-01T13:23:48.813Z,10.57
2023-03-01T13:27:08.388Z,11.23
2023-03-01T13:30:34.647Z,11.53
2023-03-01T13:33:50.286Z,11.80
2023-03-01T13:36:52.003Z,11.85
2023-03-01T13:39:53.800Z,11.95
2023-03-01T13:43:05.287Z,11.81
2023-03-01T13:46:17.663Z,11.86
2023-03-01T13:49:27.338Z,12.07
2023-03-01T13:52:43.076Z,12.21
2023-03-01T13:55:58.704Z,11.89
2023-03-01T13:59:13.549Z,11.75
2023-03-01T14:02:16.290Z,12.12
2023-03-01T14:05:17.687Z,12.02
2023-03-01T14:08:25.088Z,12.14
2023-03-01T14:11:29.540Z,11.90
2023-03-01T14:14:39.971Z,11.99
2023-03-01T14:17:56.852Z,12.20
2023-03-01T14:20:58.368Z,12.21
2023-03-01T14:24:00.216Z,12.07
2023-03-01T14:27:02.768Z,12.47
2023-03-01T14:30:15.988Z,12.59
2023-03-01T14:33:26.404Z,12.54
2023-03-01T14:36:31.128Z,12.26
2023-03-01T14:39:33.094Z,11.72
2023-03-01T14:42:37.653Z,11.74
2023-03-01T14:45:39.227Z,11.23
2023-03-01T14:48:40.816Z,11.23
2023-03-01T14:51:44.250Z,11.40
2023-03-01T14:54:49.279Z,11.76
2023-03-01T14:57:51.996Z,11.66
2023-03-01T15:00:56.251Z,11.22
2023-03-01T15:03:58.074Z,10.96
2023-03-01T15:07:05.736Z,10.76
2023-03-01T15:10:16.526Z,10.74
2023-03-01T15:13:27.428Z,10.73
2023-03-01T15:16:34.659Z,10.56
2023-03-01T15:19:36.359Z,10.42
2023-03-01T15:22:37.854Z,10.39
2023-03-01T15:25:45.540Z,10.28
2023-03-01T15:28:51.460Z,10.23
2023-03-01T15:32:00.253Z,10.14
2023-03-01T15:35:22.677Z,10.06
2023-03-01T15:38:32.720Z,9.98
2023-03-01T15:41:47.461Z,9.99
2023-03-01T15:44:48.879Z,9.89
2023-03-01T15:47:52.879Z,9.94
2023-03-01T15:50:59.231Z,9.77
2023-03-01T15:54:04.564Z,9.76
2023-03-01T15:57:05.986Z,9.69
2023-03-01T16:00:12.306Z,9.54
2023-03-01T16:03:13.752Z,9.49
2023-03-01T16:06:15.232Z,9.50
2023-03-01T16:09:16.711Z,9.55
2023-03-01T16:12:18.146Z,9.48
2023-03-01T16:15:25.262Z,9.37
2023-03-01T16:18:26.845Z,9.39
2023-03-01T16:21:28.259Z,9.38
2023-03-01T16:24:29.632Z,9.17
2023-03-01T16:27:31.008Z,9.09
2023-03-01T16:30:32.592Z,9.14
2023-03-01T16:33:34.860Z,9.07
2023-03-01T16:36:37.553Z,8.99
2023-03-01T16:39:39.572Z,8.99
2023-03-01T16:42:41.606Z,8.99
2023-03-01T16:45:45.507Z,8.91
2023-03-01T16:48:47.858Z,8.86
2023-03-01T16:51:49.367Z,8.89
2023-03-01T16:54:50.768Z,8.88
2023-03-01T16:57:52.191Z,8.78
2023-03-01T17:00:55.025Z,8.68
2023-03-01T17:03:56.926Z,8.59
2023-03-01T17:06:58.443Z,8.54
2023-03-01T17:10:04.374Z,8.50
2023-03-01T17:13:05.759Z,8.44
2023-03-01T17:16:10.410Z,8.41
2023-03-01T17:19:12.063Z,8.38
2023-03-01T17:22:13.988Z,8.34
2023-03-01T17:25:15.754Z,8.19
2023-03-01T17:28:17.250Z,8.10
2023-03-01T17:31:19.971Z,8.01
2023-03-01T17:34:21.484Z,8.05
2023-03-01T17:37:23.043Z,7.98
2023-03-01T17:40:24.409Z,8.01
2023-03-01T17:43:25.889Z,7.96
2023-03-01T17:46:27.387Z,7.92
2023-03-01T17:49:29.136Z,7.93
2023-03-01T17:52:31.199Z,7.88
2023-03-01T17:55:32.578Z,7.92
2023-03-01T17:58:34.298Z,7.81
2023-03-01T18:01:36.104Z,7.69
2023-03-01T18:04:37.537Z,7.63
2023-03-01T18:07:39.090Z,7.57
2023-03-01T18:10:40.604Z,7.47
2023-03-01T18:13:42.000Z,7.35
2023-03-01T18:16:43.553Z,7.34
2023-03-01T18:19:45.307Z,7.22
2023-03-01T18:22:47.544Z,7.22
2023-03-01T18:25:49.102Z,7.20
2023-03-01T18:28:52.566Z,7.25
2023-03-01T18:31:54.155Z,7.27
2023-03-01T18:34:55.579Z,7.21
2023-03-01T18:37:57.461Z,7.16
2023-03-01T18:40:59.172Z,7.04
2023-03-01T18:44:02.650Z,7.03
2023-03-01T18:47:04.210Z,7.06
2023-03-01T18:50:06.209Z,7.00
2023-03-01T18:53:08.059Z,6.92
2023-03-01T18:56:10.577Z,6.85
2023-03-01T18:59:12.655Z,6.79
2023-03-01T19:02:15.485Z,6.78
2023-03-01T19:05:17.563Z,6.74
2023-03-01T19:08:18.985Z,6.72
2023-03-01T19:11:21.776Z,6.74
2023-03-01T19:14:23.204Z,6.71
2023-03-01T19:17:30.336Z,6.68
2023-03-01T19:20:31.739Z,6.66
2023-03-01T19:23:36.603Z,6.65
2023-03-01T19:26:38.055Z,6.63
2023-03-01T19:29:39.789Z,6.62
2023-03-01T19:32:41.478Z,6.53
2023-03-01T19:35:42.922Z,6.60
2023-03-01T19:38:44.412Z,6.52
2023-03-01T19:41:48.216Z,6.47
2023-03-01T19:44:51.105Z,6.45
2023-03-01T19:47:52.535Z,6.44
2023-03-01T19:50:54.075Z,6.42
2023-03-01T19:53:55.940Z,6.30
2023-03-01T19:56:57.483Z,6.27
2023-03-01T19:59:59.364Z,6.25
2023-03-01T20:03:01.096Z,6.17
2023-03-01T20:06:10.605Z,6.15
2023-03-01T20:09:21.463Z,6.12
2023-03-01T20:12:23.722Z,6.12
2023-03-01T20:15:25.360Z,6.11
2023-03-01T20:18:27.238Z,6.06
2023-03-01T20:21:28.777Z,5.99
2023-03-01T20:24:33.307Z,5.99
2023-03-01T20:27:34.775Z,5.93
2023-03-01T20:30:37.739Z,5.93
2023-03-01T20:33:39.823Z,5.88
2023-03-01T20:36:42.683Z,5.79
2023-03-01T20:39:44.088Z,5.82
2023-03-01T20:42:45.464Z,5.72
2023-03-01T20:45:46.906Z,5.64
2023-03-01T20:48:48.356Z,5.64
2023-03-01T20:51:49.770Z,5.74
2023-03-01T20:54:51.243Z,5.76
2023-03-01T20:57:52.707Z,5.69
2023-03-01T21:00:54.132Z,5.69
2023-03-01T21:03:55.908Z,5.66
2023-03-01T21:06:57.428Z,5.60
2023-03-01T21:09:59.018Z,5.59
2023-03-01T21:13:00.411Z,5.63
2023-03-01T21:16:07.967Z,5.64
2023-03-01T21:19:09.492Z,5.59
2023-03-01T21:22:12.659Z,5.59
2023-03-01T21:25:14.103Z,5.64
2023-03-01T21:28:15.566Z,5.58
2023-03-01T21:31:19.860Z,5.52
2023-03-01T21:34:21.275Z,5.33
2023-03-01T21:37:28.341Z,5.16
2023-03-01T21:40:29.774Z,5.22
2023-03-01T21:43:31.205Z,5.03
2023-03-01T21:46:36.455Z,4.84
2023-03-01T21:49:38.035Z,4.74
2023-03-01T21:52:39.480Z,4.61
2023-03-01T21:55:47.455Z,4.62
2023-03-01T21:58:49.697Z,4.50
2023-03-01T22:01:51.774Z,4.35
2023-03-01T22:04:57.335Z,4.22
2023-03-01T22:07:58.794Z,4.20
2023-03-01T22:11:02.235Z,4.13
2023-03-01T22:14:04.701Z,4.11
2023-03-01T22:17:06.219Z,4.12
2023-03-01T22:20:08.270Z,4.10
2023-03-01T22:23:09.699Z,4.06
2023-03-01T22:26:27.766Z,4.05
2023-03-01T22:29:29.590Z,3.99
2023-03-01T22:32:31.209Z,3.83
2023-03-01T22:35:32.691Z,3.79
2023-03-01T22:38:34.174Z,3.89
2023-03-01T22:41:43.012Z,3.79
2023-03-01T22:44:44.536Z,3.77
2023-03-01T22:47:45.946Z,3.71
2023-03-01T22:50:48.486Z,3.65
2023-03-01T22:53:50.575Z,3.61
2023-03-01T22:56:51.963Z,3.56
2023-03-01T22:59:53.344Z,3.46
2023-03-01T23:02:54.801Z,3.57
2023-03-01T23:05:56.279Z,3.52
2023-03-01T23:09:00.320Z,3.47
2023-03-01T23:12:06.490Z,3.40
2023-03-01T23:15:08.949Z,3.45
2023-03-01T23:18:10.951Z,3.40
2023-03-01T23:21:14.769Z,3.28
2023-03-01T23:24:18.196Z,3.20
2023-03-01T23:27:19.639Z,3.05
2023-03-01T23:30:21.592Z,3.10
2023-03-01T23:33:23.100Z,3.00
2023-03-01T23:36:28.469Z,2.92
2023-03-01T23:39:31.982Z,2.86
2023-03-01T23:42:34.129Z,2.75
2023-03-01T23:45:42.976Z,2.71
2023-03-01T23:48:45.526Z,2.75
2023-03-01T23:51:47.783Z,2.71
2023-03-01T23:54:49.213Z,2.79
2023-03-01T23:57:50.633Z,2.69
